createdAt,value
2023-04-25T00:00:53.977Z,6.93
2023-04-25T00:03:22.358Z,6.92
2023-04-25T00:05:50.048Z,6.94
2023-04-25T00:08:18.509Z,6.89
2023-04-25T00:10:45.258Z,6.92
2023-04-25T00:13:12.732Z,6.97
2023-04-25T00:15:42.730Z,6.95
2023-04-25T00:18:09.982Z,6.92
2023-04-25T00:20:37.041Z,7.00
2023-04-25T00:23:03.640Z,7.00
2023-04-25T00:25:30.484Z,6.98
2023-04-25T00:27:57.691Z,7.04
2023-04-25T00:30:24.471Z,7.03
2023-04-25T00:32:51.674Z,6.95
2023-04-25T00:35:18.313Z,6.94
2023-04-25T00:37:46.305Z,6.93
2023-04-25T00:40:12.993Z,6.89
2023-04-25T00:42:41.271Z,6.97
2023-04-25T00:45:10.390Z,6.97
2023-04-25T00:47:38.547Z,6.98
2023-04-25T00:50:06.129Z,6.97
2023-04-25T00:52:32.730Z,7.02
2023-04-25T00:55:00.017Z,7.04
2023-04-25T00:57:26.821Z,7.02
2023-04-25T00:59:54.530Z,6.98
2023-04-25T01:02:23.719Z,6.94
2023-04-25T01:04:51.867Z,6.90
2023-04-25T01:07:18.754Z,6.84
2023-04-25T01:09:45.405Z,6.85
2023-04-25T01:12:12.256Z,6.86
2023-04-25T01:14:39.584Z,6.87
2023-04-25T01:17:06.488Z,6.87
2023-04-25T01:19:33.231Z,6.88
2023-04-25T01:21:59.910Z,6.89
2023-04-25T01:24:27.083Z,6.85
2023-04-25T01:26:57.311Z,6.85
2023-04-25T01:29:24.524Z,6.83
2023-04-25T01:31:53.574Z,6.69
2023-04-25T01:34:20.747Z,6.69
2023-04-25T01:36:51.378Z,6.70
2023-04-25T01:39:18.833Z,6.61
2023-04-25T01:41:49.700Z,6.64
2023-04-25T01:44:16.600Z,6.71
2023-04-25T01:46:46.634Z,6.73
2023-04-25T01:49:13.342Z,6.74
2023-04-25T01:51:40.008Z,6.67
2023-04-25T01:54:06.816Z,6.38
2023-04-25T01:56:37.682Z,6.45
2023-04-25T01:59:07.644Z,6.47
2023-04-25T02:01:34.413Z,6.46
2023-04-25T02:04:02.955Z,6.43
2023-04-25T02:06:29.725Z,6.45
2023-04-25T02:08:56.333Z,6.46
2023-04-25T02:11:23.282Z,6.48
2023-04-25T02:13:50.128Z,6.43
2023-04-25T02:16:16.976Z,6.37
2023-04-25T02:18:44.099Z,6.35
2023-04-25T02:21:10.761Z,6.33
2023-04-25T02:23:37.461Z,6.36
2023-04-25T02:26:04.278Z,6.39
2023-04-25T02:28:32.259Z,6.45
2023-04-25T02:31:01.482Z,6.49
2023-04-25T02:33:28.129Z,6.51
2023-04-25T02:35:54.714Z,6.50
2023-04-25T02:38:21.292Z,6.47
2023-04-25T02:40:49.480Z,6.49
2023-04-25T02:43:17.102Z,6.51
2023-04-25T02:45:43.714Z,6.55
2023-04-25T02:48:10.326Z,6.54
2023-04-25T02:50:37.054Z,6.59
2023-04-25T02:53:03.666Z,6.55
2023-04-25T02:55:30.267Z,6.50
2023-04-25T02:57:57.538Z,6.55
2023-04-25T03:00:25.858Z,6.59
2023-04-25T03:02:52.525Z,6.54
2023-04-25T03:05:20.631Z,6.50
2023-04-25T03:07:47.270Z,6.51
2023-04-25T03:10:14.082Z,6.55
2023-04-25T03:12:40.722Z,6.58
2023-04-25T03:15:07.666Z,6.60
2023-04-25T03:17:34.364Z,6.62
2023-04-25T03:20:01.553Z,6.63
2023-04-25T03:22:29.722Z,6.60
2023-04-25T03:24:56.230Z,6.57
2023-04-25T03:27:22.864Z,6.53
2023-04-25T03:29:49.412Z,6.54
2023-04-25T03:32:16.083Z,6.57
2023-04-25T03:34:42.753Z,6.60
2023-04-25T03:37:09.342Z,6.60
2023-04-25T03:39:36.148Z,6.55
2023-04-25T03:42:03.994Z,6.59
2023-04-25T03:44:30.630Z,6.55
2023-04-25T03:46:57.567Z,6.52
2023-04-25T03:49:24.143Z,6.49
2023-04-25T03:51:50.867Z,6.49
2023-04-25T03:54:17.698Z,6.52
2023-04-25T03:56:44.364Z,6.53
2023-04-25T03:59:11.246Z,6.59
2023-04-25T04:01:37.974Z,6.59
2023-04-25T04:04:05.162Z,6.61
2023-04-25T04:06:34.187Z,6.60
2023-04-25T04:09:00.837Z,6.59
2023-04-25T04:11:27.937Z,6.63
2023-04-25T04:13:54.496Z,6.65
2023-04-25T04:16:21.410Z,6.64
2023-04-25T04:18:48.153Z,6.64
2023-04-25T04:21:14.779Z,6.66
2023-04-25T04:23:41.589Z,6.63
2023-04-25T04:26:10.008Z,6.65
2023-04-25T04:28:36.905Z,6.60
2023-04-25T04:31:04.819Z,6.63
2023-04-25T04:33:32.092Z,6.57
2023-04-25T04:35:59.017Z,6.62
2023-04-25T04:38:27.575Z,6.57
2023-04-25T04:40:54.901Z,6.60
2023-04-25T04:43:21.586Z,6.53
2023-04-25T04:45:48.714Z,6.57
2023-04-25T04:48:15.543Z,6.57
2023-04-25T04:50:46.010Z,6.58
2023-04-25T04:53:12.922Z,6.56
2023-04-25T04:55:39.947Z,6.51
2023-04-25T04:58:06.702Z,6.51
2023-04-25T05:00:34.185Z,6.57
2023-04-25T05:03:01.259Z,6.57
2023-04-25T05:05:28.040Z,6.58
2023-04-25T05:07:55.928Z,6.59
2023-04-25T05:10:23.572Z,6.60
2023-04-25T05:12:50.710Z,6.65
2023-04-25T05:15:17.354Z,6.64
2023-04-25T05:17:44.064Z,6.53
2023-04-25T05:20:11.545Z,6.52
2023-04-25T05:22:38.525Z,6.53
2023-04-25T05:25:05.705Z,6.50
2023-04-25T05:27:32.338Z,6.52
2023-04-25T05:29:58.892Z,6.51
2023-04-25T05:32:26.414Z,6.53
2023-04-25T05:34:53.373Z,6.52
2023-04-25T05:37:19.935Z,6.56
2023-04-25T05:39:46.577Z,6.56
2023-04-25T05:42:13.088Z,6.58
2023-04-25T05:44:39.817Z,6.64
2023-04-25T05:47:06.470Z,6.68
2023-04-25T05:49:33.139Z,6.71
2023-04-25T05:51:59.742Z,6.71
2023-04-25T05:54:26.416Z,6.78
2023-04-25T05:56:53.010Z,6.82
2023-04-25T05:59:19.678Z,6.89
2023-04-25T06:01:48.506Z,6.91
2023-04-25T06:04:16.023Z,6.91
2023-04-25T06:06:42.730Z,6.96
2023-04-25T06:09:09.516Z,7.05
2023-04-25T06:11:36.398Z,7.04
2023-04-25T06:14:03.021Z,7.10
2023-04-25T06:16:29.863Z,7.09
2023-04-25T06:18:56.640Z,7.17
2023-04-25T06:21:23.289Z,7.18
2023-04-25T06:23:50.703Z,7.31
2023-04-25T06:26:17.881Z,7.38
2023-04-25T06:28:44.458Z,7.38
2023-04-25T06:31:11.276Z,7.44
2023-04-25T06:33:38.005Z,7.50
2023-04-25T06:36:04.929Z,7.48
2023-04-25T06:38:32.134Z,7.57
2023-04-25T06:40:58.749Z,7.74
2023-04-25T06:43:25.862Z,7.86
2023-04-25T06:45:52.517Z,7.99
2023-04-25T06:48:19.043Z,8.01
2023-04-25T06:50:45.733Z,8.17
2023-04-25T06:53:12.678Z,8.09
2023-04-25T06:55:39.532Z,8.11
2023-04-25T06:58:06.114Z,8.07
2023-04-25T07:00:34.565Z,8.18
2023-04-25T07:03:01.715Z,8.04
2023-04-25T07:05:28.548Z,8.11
2023-04-25T07:07:56.374Z,7.90
2023-04-25T07:10:23.828Z,7.93
2023-04-25T07:12:51.194Z,8.00
2023-04-25T07:15:18.963Z,8.00
2023-04-25T07:17:45.640Z,8.05
2023-04-25T07:20:12.766Z,8.29
2023-04-25T07:22:39.443Z,8.47
2023-04-25T07:25:07.006Z,8.61
2023-04-25T07:27:33.947Z,8.54
2023-04-25T07:30:00.636Z,8.36
2023-04-25T07:32:27.861Z,8.47
2023-04-25T07:34:54.578Z,8.44
2023-04-25T07:37:21.288Z,8.39
2023-04-25T07:39:48.037Z,8.19
2023-04-25T07:42:14.690Z,8.29
2023-04-25T07:44:42.052Z,8.30
2023-04-25T07:47:11.451Z,8.27
2023-04-25T07:49:39.254Z,8.22
2023-04-25T07:52:09.729Z,8.22
2023-04-25T07:54:36.694Z,8.17
2023-04-25T07:57:05.568Z,8.24
2023-04-25T07:59:33.918Z,8.23
2023-04-25T08:02:02.232Z,8.22
2023-04-25T08:04:29.104Z,8.22
2023-04-25T08:06:55.814Z,8.21
2023-04-25T08:09:26.073Z,8.29
2023-04-25T08:11:52.808Z,8.29
2023-04-25T13:02:35.107Z,15.21
2023-04-25T13:05:01.932Z,15.06
2023-04-25T13:07:28.641Z,14.95
2023-04-25T13:09:55.481Z,14.86
2023-04-25T13:12:22.348Z,14.75
2023-04-25T13:14:48.957Z,14.71
2023-04-25T13:17:17.042Z,14.74
2023-04-25T13:19:43.825Z,14.63
2023-04-25T13:25:50.705Z,14.35
2023-04-25T13:28:26.891Z,14.42
2023-04-25T13:30:57.384Z,14.43
2023-04-25T13:33:24.105Z,14.88
2023-04-25T13:36:00.758Z,14.99
2023-04-25T13:38:28.661Z,15.49
2023-04-25T13:40:55.413Z,16.18
2023-04-25T13:43:25.450Z,16.45
2023-04-25T13:45:52.671Z,16.42
2023-04-25T13:48:21.171Z,15.47
2023-04-25T13:50:48.306Z,15.24
2023-04-25T13:53:15.889Z,14.99
2023-04-25T13:55:43.598Z,14.53
2023-04-25T13:58:11.037Z,14.12
2023-04-25T14:00:40.169Z,13.93
2023-04-25T14:03:10.423Z,13.73
2023-04-25T14:05:41.315Z,13.66
2023-04-25T14:08:12.506Z,13.68
2023-04-25T14:10:39.019Z,13.76
2023-04-25T14:13:07.012Z,13.85
2023-04-25T14:15:37.423Z,13.99
2023-04-25T14:18:04.280Z,13.77
2023-04-25T14:20:31.119Z,13.58
2023-04-25T14:22:59.401Z,13.49
2023-04-25T14:25:26.701Z,13.55
2023-04-25T14:27:55.472Z,13.51
2023-04-25T14:30:23.932Z,13.38
2023-04-25T14:32:51.030Z,13.30
2023-04-25T14:35:17.988Z,13.37
2023-04-25T14:37:45.089Z,14.13
2023-04-25T14:40:14.067Z,14.32
2023-04-25T14:42:41.081Z,13.72
2023-04-25T14:45:10.631Z,13.50
2023-04-25T14:47:38.832Z,13.37
2023-04-25T14:50:07.350Z,13.13
2023-04-25T14:52:34.000Z,13.09
2023-04-25T14:55:06.098Z,13.05
2023-04-25T14:57:34.847Z,12.99
2023-04-25T15:00:02.206Z,12.98
2023-04-25T15:02:29.437Z,12.98
2023-04-25T15:04:58.493Z,12.86
2023-04-25T15:07:25.677Z,12.87
2023-04-25T15:09:54.308Z,12.74
2023-04-25T15:12:22.848Z,12.71
2023-04-25T15:14:49.544Z,12.75
2023-04-25T15:17:16.235Z,12.73
2023-04-25T15:19:42.970Z,12.66
2023-04-25T15:22:10.097Z,12.65
2023-04-25T15:24:36.923Z,12.59
2023-04-25T15:27:07.483Z,12.64
2023-04-25T15:29:34.119Z,12.58
2023-04-25T15:32:00.940Z,12.56
2023-04-25T15:34:27.963Z,12.42
2023-04-25T15:36:56.503Z,12.37
2023-04-25T15:39:23.169Z,12.11
2023-04-25T15:41:49.848Z,11.93
2023-04-25T15:44:16.438Z,11.98
2023-04-25T15:46:44.384Z,11.93
2023-04-25T15:49:11.130Z,11.79
2023-04-25T15:51:37.773Z,11.97
2023-04-25T15:54:04.437Z,11.92
2023-04-25T15:56:32.066Z,11.86
2023-04-25T15:59:00.624Z,11.84
2023-04-25T16:01:30.742Z,11.76
2023-04-25T16:06:27.706Z,11.79
2023-04-25T16:08:55.117Z,11.80
2023-04-25T16:11:21.776Z,11.81
2023-04-25T16:13:50.619Z,11.72
2023-04-25T16:16:17.448Z,11.64
2023-04-25T16:18:44.403Z,11.54
2023-04-25T16:21:16.960Z,11.55
2023-04-25T16:23:43.982Z,11.57
2023-04-25T16:26:10.970Z,11.70
2023-04-25T16:28:37.550Z,11.71
2023-04-25T16:31:04.273Z,11.77
2023-04-25T16:33:31.664Z,11.74
2023-04-25T16:35:58.442Z,11.70
2023-04-25T16:38:28.004Z,11.64
2023-04-25T16:40:54.717Z,11.58
2023-04-25T16:43:21.430Z,11.42
2023-04-25T16:45:48.577Z,11.29
2023-04-25T16:48:16.347Z,11.12
2023-04-25T16:50:42.968Z,11.04
2023-04-25T16:53:09.884Z,11.03
2023-04-25T16:55:38.558Z,10.99
2023-04-25T16:58:05.179Z,11.04
2023-04-25T17:00:33.676Z,11.07
2023-04-25T17:03:00.699Z,10.98
2023-04-25T17:05:27.504Z,10.77
2023-04-25T17:07:54.177Z,10.73
2023-04-25T17:10:21.326Z,10.70
2023-04-25T17:12:48.127Z,10.70
2023-04-25T17:15:14.758Z,10.48
2023-04-25T17:17:41.787Z,10.44
2023-04-25T17:20:13.736Z,10.33
2023-04-25T17:22:40.872Z,10.21
2023-04-25T17:25:09.378Z,10.10
2023-04-25T17:27:37.971Z,10.01
2023-04-25T17:30:08.433Z,9.91
2023-04-25T17:32:35.890Z,9.84
2023-04-25T17:35:02.574Z,9.85
2023-04-25T17:37:29.197Z,9.89
2023-04-25T17:39:55.851Z,9.88
2023-04-25T17:42:24.063Z,9.77
2023-04-25T17:44:50.761Z,9.81
2023-04-25T17:47:17.457Z,9.75
2023-04-25T17:49:44.089Z,9.79
2023-04-25T17:52:11.133Z,9.68
2023-04-25T17:54:38.009Z,9.64
2023-04-25T17:57:04.880Z,9.64
2023-04-25T17:59:31.578Z,9.62
2023-04-25T18:02:00.004Z,9.49
2023-04-25T18:04:27.191Z,9.45
2023-04-25T18:06:55.849Z,9.41
2023-04-25T18:09:23.778Z,9.32
2023-04-25T18:11:54.554Z,9.24
2023-04-25T18:14:22.190Z,9.15
2023-04-25T18:16:53.757Z,9.16
2023-04-25T18:19:21.698Z,9.16
2023-04-25T18:21:54.595Z,9.14
2023-04-25T18:24:26.351Z,9.01
2023-04-25T18:26:55.046Z,9.09
2023-04-25T18:29:32.260Z,9.07
2023-04-25T18:32:02.594Z,8.98
2023-04-25T18:34:30.135Z,8.96
2023-04-25T18:36:57.160Z,8.95
2023-04-25T18:39:27.372Z,8.92
2023-04-25T18:42:04.348Z,8.87
2023-04-25T18:44:33.914Z,8.90
2023-04-25T18:47:00.927Z,8.75
2023-04-25T18:49:28.164Z,8.76
2023-04-25T18:51:56.310Z,8.78
2023-04-25T18:54:22.965Z,8.73
2023-04-25T18:56:49.728Z,8.73
2023-04-25T18:59:17.320Z,8.62
2023-04-25T19:01:46.185Z,8.65
2023-04-25T19:04:12.909Z,8.64
2023-04-25T19:06:41.474Z,8.62
2023-04-25T19:09:12.106Z,8.61
2023-04-25T19:11:38.922Z,8.56
2023-04-25T19:14:05.780Z,8.55
2023-04-25T19:16:38.830Z,8.49
2023-04-25T19:19:07.688Z,8.46
2023-04-25T19:21:36.216Z,8.43
2023-04-25T19:24:06.525Z,8.38
2023-04-25T19:26:33.187Z,8.34
2023-04-25T19:29:18.124Z,8.26
2023-04-25T19:31:45.878Z,8.19
2023-04-25T19:34:13.906Z,8.07
2023-04-25T19:36:43.525Z,8.05
2023-04-25T19:39:11.994Z,8.00
2023-04-25T19:41:40.864Z,7.93
2023-04-25T19:44:09.387Z,7.80
2023-04-25T19:46:36.932Z,7.77
2023-04-25T19:49:08.364Z,7.70
2023-04-25T19:51:37.392Z,7.66
2023-04-25T19:54:04.485Z,7.58
2023-04-25T19:56:34.710Z,7.49
2023-04-25T19:59:01.361Z,7.43
2023-04-25T20:01:28.414Z,7.33
2023-04-25T20:03:56.132Z,7.25
2023-04-25T20:06:23.161Z,7.16
2023-04-25T20:08:52.979Z,7.09
2023-04-25T20:11:20.061Z,6.99
2023-04-25T20:13:48.687Z,6.92
2023-04-25T20:16:20.616Z,6.85
2023-04-25T20:18:48.715Z,6.75
2023-04-25T20:21:16.904Z,6.66
2023-04-25T20:23:43.995Z,6.59
2023-04-25T20:26:12.942Z,6.51
2023-04-25T20:28:40.167Z,6.43
2023-04-25T20:31:09.078Z,6.34
2023-04-25T20:33:37.807Z,6.22
2023-04-25T20:36:06.790Z,6.19
2023-04-25T20:38:38.537Z,6.12
2023-04-25T20:41:05.135Z,6.04
2023-04-25T20:43:32.018Z,5.91
2023-04-25T20:46:00.914Z,5.84
2023-04-25T20:48:27.513Z,5.79
2023-04-25T20:50:55.038Z,5.73
2023-04-25T20:53:24.033Z,5.69
2023-04-25T20:55:52.319Z,5.63
2023-04-25T20:58:20.679Z,5.59
2023-04-25T21:00:47.693Z,5.54
2023-04-25T21:03:15.233Z,5.50
2023-04-25T21:05:42.109Z,5.44
2023-04-25T21:08:10.255Z,5.38
2023-04-25T21:10:37.697Z,5.31
2023-04-25T21:13:04.389Z,5.24
2023-04-25T21:15:31.250Z,5.22
2023-04-25T21:17:57.961Z,5.15
2023-04-25T21:20:24.556Z,5.04
2023-04-25T21:22:53.847Z,4.99
2023-04-25T21:25:30.121Z,4.97
2023-04-25T21:27:57.840Z,4.95
2023-04-25T21:30:27.432Z,4.92
2023-04-25T21:32:55.075Z,4.82
2023-04-25T21:35:23.084Z,4.80
2023-04-25T21:37:50.890Z,4.75
2023-04-25T21:40:19.830Z,4.68
2023-04-25T21:42:53.429Z,4.55
2023-04-25T21:45:23.476Z,4.51
2023-04-25T21:47:50.799Z,4.41
2023-04-25T21:50:17.727Z,4.37
2023-04-25T21:52:46.328Z,4.30
2023-04-25T21:55:12.972Z,4.21
2023-04-25T21:57:39.680Z,4.13
2023-04-25T22:00:21.482Z,4.00
2023-04-25T22:02:48.736Z,3.94
2023-04-25T22:05:15.577Z,3.90
2023-04-25T22:07:42.163Z,3.91
2023-04-25T22:10:10.951Z,3.93
2023-04-25T22:12:37.809Z,3.92
2023-04-25T22:15:04.788Z,3.83
2023-04-25T22:17:31.679Z,3.85
2023-04-25T22:19:59.555Z,3.84
2023-04-25T22:22:26.529Z,3.80
2023-04-25T22:24:53.312Z,3.73
2023-04-25T22:27:22.404Z,3.72
2023-04-25T22:29:50.933Z,3.67
2023-04-25T22:32:19.860Z,3.59
2023-04-25T22:34:46.697Z,3.56
2023-04-25T22:37:13.306Z,3.47
2023-04-25T22:39:40.337Z,3.38
2023-04-25T22:42:08.763Z,3.35
2023-04-25T22:44:37.417Z,3.23
2023-04-25T22:47:04.009Z,3.23
2023-04-25T22:49:30.618Z,3.23
2023-04-25T22:51:57.524Z,3.23
2023-04-25T22:54:24.242Z,3.20
2023-04-25T22:56:51.137Z,3.20
2023-04-25T22:59:18.064Z,3.09
2023-04-25T23:01:44.939Z,3.09
2023-04-25T23:04:11.908Z,3.08
2023-04-25T23:06:38.726Z,3.06
2023-04-25T23:09:06.060Z,3.00
2023-04-25T23:11:32.847Z,2.98
2023-04-25T23:14:00.703Z,2.97
2023-04-25T23:16:29.888Z,2.93
2023-04-25T23:18:56.517Z,2.91
2023-04-25T23:21:23.244Z,2.88
2023-04-25T23:23:50.365Z,2.86
2023-04-25T23:26:16.963Z,2.79
2023-04-25T23:28:45.128Z,2.72
2023-04-25T23:31:12.870Z,2.69
2023-04-25T23:33:41.746Z,2.63
2023-04-25T23:36:08.581Z,2.62
2023-04-25T23:38:35.863Z,2.56
2023-04-25T23:41:02.431Z,2.45
2023-04-25T23:43:29.082Z,2.37
2023-04-25T23:45:55.944Z,2.31
2023-04-25T23:48:23.048Z,2.35
2023-04-25T23:50:49.748Z,2.39
2023-04-25T23:53:16.402Z,2.36
2023-04-25T23:55:43.059Z,2.35
2023-04-25T23:58:10.032Z,2.35
